Time;durP1;ratioP1;P1;durP2;ratioP2;P2;SDS_P1;SDS_P2;PMS_P1;PMS_P2;Temp;Humidity;BMP_temperature;BMP_pressure;BME280_temperature;BME280_humidity;BME280_pressure;Samples;Min_cycle;Max_cycle;Signal;HPM_P1;HPM_P2
2023/09/21 00:01:04;;;;;;;2.00;1.73;;;21.10;97.10;;;;;;5004833;28;20570;-86
2023/09/21 00:03:30;;;;;;;2.63;1.70;;;21.10;97.30;;;;;;4995051;28;20661;-86
2023/09/21 00:05:59;;;;;;;2.43;1.70;;;21.10;97.30;;;;;;4992912;28;20228;-86
2023/09/21 00:08:25;;;;;;;3.07;1.90;;;21.10;97.10;;;;;;5009412;28;20233;-86
2023/09/21 00:10:51;;;;;;;2.27;1.80;;;21.10;96.90;;;;;;5005585;28;20508;-87
2023/09/21 00:13:18;;;;;;;2.17;1.80;;;21.10;97.00;;;;;;5007326;28;20447;-86
2023/09/21 00:15:44;;;;;;;3.07;1.70;;;21.10;97.10;;;;;;5042937;28;20173;-86
2023/09/21 00:18:10;;;;;;;2.57;1.70;;;21.00;97.20;;;;;;5004302;28;20274;-86
2023/09/21 00:23:07;;;;;;;2.10;1.70;;;21.10;97.10;;;;;;5021514;28;20165;-87
2023/09/21 00:25:34;;;;;;;2.70;1.80;;;21.10;97.10;;;;;;5012321;28;20482;-86
2023/09/21 00:28:00;;;;;;;5.00;1.70;;;21.00;96.90;;;;;;4993685;28;20276;-86
2023/09/21 00:30:26;;;;;;;3.67;2.03;;;21.00;97.00;;;;;;4994654;28;20166;-86
2023/09/21 00:32:54;;;;;;;3.17;1.43;;;21.10;97.00;;;;;;5000732;28;20249;-86
2023/09/21 00:35:23;;;;;;;2.60;1.80;;;21.00;97.10;;;;;;4994305;28;20232;-86
2023/09/21 00:37:49;;;;;;;2.57;1.60;;;21.10;97.10;;;;;;5023371;28;20228;-86
2023/09/21 00:40:18;;;;;;;2.33;1.60;;;21.10;97.10;;;;;;4995325;28;20675;-86
2023/09/21 00:42:47;;;;;;;2.80;1.60;;;21.10;97.00;;;;;;5007640;28;20177;-86
2023/09/21 00:45:18;;;;;;;1.87;1.60;;;21.10;97.00;;;;;;4995458;28;20185;-86
2023/09/21 00:47:51;;;;;;;3.63;1.80;;;21.00;97.00;;;;;;5025464;28;20466;-86
2023/09/21 00:50:24;;;;;;;2.80;1.70;;;21.10;96.90;;;;;;4976334;28;20229;-87
2023/09/21 00:52:52;;;;;;;2.80;1.77;;;21.10;96.80;;;;;;5001525;28;20272;-86
2023/09/21 00:55:25;;;;;;;2.20;1.80;;;21.00;96.80;;;;;;5028819;28;20205;-87
2023/09/21 00:57:55;;;;;;;2.33;1.80;;;21.00;96.80;;;;;;5005826;28;20201;-86
2023/09/21 01:00:25;;;;;;;3.33;2.00;;;21.00;96.70;;;;;;5014498;28;20174;-87
2023/09/21 01:02:53;;;;;;;2.77;1.77;;;21.00;96.80;;;;;;5004260;28;20189;-86
2023/09/21 01:05:21;;;;;;;2.20;1.60;;;21.10;96.90;;;;;;5015926;28;20169;-87
2023/09/21 01:07:48;;;;;;;3.67;1.93;;;21.00;96.70;;;;;;5008204;28;20431;-87
2023/09/21 01:10:22;;;;;;;1.90;1.70;;;21.10;96.70;;;;;;5009646;28;20440;-86
2023/09/21 01:12:51;;;;;;;2.07;1.50;;;21.10;96.50;;;;;;5008235;28;20203;-86
2023/09/21 01:15:18;;;;;;;2.50;1.90;;;21.10;96.40;;;;;;5008162;28;20384;-87
2023/09/21 01:17:47;;;;;;;1.73;1.53;;;21.10;96.50;;;;;;5010557;28;20263;-87
2023/09/21 01:20:23;;;;;;;2.27;1.70;;;21.10;96.40;;;;;;5005148;28;20187;-86
2023/09/21 01:23:14;;;;;;;2.60;1.80;;;21.10;96.50;;;;;;5011296;28;20169;-86
2023/09/21 01:25:46;;;;;;;2.33;1.70;;;21.00;96.40;;;;;;5008244;28;20175;-86
2023/09/21 01:28:18;;;;;;;2.73;1.67;;;20.90;96.30;;;;;;5009698;28;20445;-86
2023/09/21 01:30:49;;;;;;;2.40;1.57;;;20.90;96.20;;;;;;4986287;28;20243;-87
2023/09/21 01:33:15;;;;;;;2.33;1.70;;;21.00;96.20;;;;;;5006634;28;20189;-86
2023/09/21 01:35:59;;;;;;;2.17;1.57;;;21.00;96.20;;;;;;5000289;28;20192;-86
2023/09/21 01:38:27;;;;;;;3.40;1.70;;;21.00;95.60;;;;;;4995123;28;20563;-86
2023/09/21 01:40:53;;;;;;;4.43;1.67;;;21.00;96.00;;;;;;5001789;28;20263;-87
2023/09/21 01:43:19;;;;;;;4.03;1.70;;;20.90;95.80;;;;;;4996708;28;20271;-86
2023/09/21 01:45:50;;;;;;;2.00;1.70;;;20.90;96.00;;;;;;5002101;28;20169;-86
2023/09/21 01:48:19;;;;;;;2.43;1.73;;;20.90;96.00;;;;;;5029607;28;20166;-86
2023/09/21 01:50:50;;;;;;;2.27;1.50;;;20.90;95.90;;;;;;5002869;28;20606;-86
2023/09/21 01:53:25;;;;;;;2.03;1.80;;;21.00;95.70;;;;;;5011534;28;20192;-87
2023/09/21 01:55:52;;;;;;;3.03;1.83;;;21.00;95.80;;;;;;5002262;28;20179;-87
2023/09/21 01:58:19;;;;;;;1.93;1.63;;;21.00;95.60;;;;;;5012787;28;20243;-87
2023/09/21 02:00:49;;;;;;;2.30;1.90;;;21.00;95.70;;;;;;5005615;28;20177;-87
2023/09/21 02:04:10;;;;;;;2.03;1.70;;;21.00;95.50;;;;;;4992685;28;20599;-87
2023/09/21 02:06:15;;;;;;;1.87;1.57;;;21.00;95.60;;;;;;5011323;28;20180;-87
2023/09/21 02:08:40;;;;;;;1.70;1.60;;;21.00;95.30;;;;;;5015549;28;20371;-87
2023/09/21 02:11:06;;;;;;;3.80;1.70;;;21.00;95.40;;;;;;5003297;28;20271;-87
2023/09/21 02:13:32;;;;;;;2.47;1.63;;;21.00;95.20;;;;;;4998302;28;20296;-87
2023/09/21 02:15:58;;;;;;;1.93;1.60;;;21.00;95.10;;;;;;5019384;28;20220;-88
2023/09/21 02:18:23;;;;;;;3.50;1.60;;;21.00;95.30;;;;;;5031427;28;20613;-87
2023/09/21 02:20:55;;;;;;;4.53;1.90;;;20.90;95.00;;;;;;5035019;28;20272;-88
2023/09/21 02:23:20;;;;;;;3.23;1.80;;;20.90;95.10;;;;;;5012154;28;20166;-88
2023/09/21 02:25:52;;;;;;;2.80;1.83;;;20.90;94.60;;;;;;4998451;28;20228;-87
2023/09/21 02:28:17;;;;;;;2.50;1.83;;;20.90;94.50;;;;;;5013076;28;20184;-87
2023/09/21 02:30:47;;;;;;;2.00;1.50;;;20.90;94.80;;;;;;5022474;28;20177;-87
2023/09/21 02:33:17;;;;;;;4.23;1.77;;;20.90;94.70;;;;;;5028881;28;20189;-87
2023/09/21 02:35:44;;;;;;;2.73;1.70;;;20.80;94.50;;;;;;5008143;28;20355;-86
2023/09/21 02:38:16;;;;;;;3.93;1.80;;;20.90;94.80;;;;;;5010738;28;20200;-86
2023/09/21 02:40:42;;;;;;;2.37;1.70;;;20.80;94.80;;;;;;5010396;28;20237;-86
2023/09/21 02:43:08;;;;;;;2.20;1.70;;;20.80;94.80;;;;;;5008738;28;20570;-86
2023/09/21 02:45:37;;;;;;;2.37;1.80;;;20.80;94.70;;;;;;5008011;28;20327;-87
2023/09/21 02:48:09;;;;;;;3.87;1.63;;;20.80;94.80;;;;;;5004901;28;20173;-87
2023/09/21 02:50:35;;;;;;;2.00;1.50;;;20.90;94.50;;;;;;5010252;28;20239;-86
2023/09/21 02:53:12;;;;;;;4.67;1.57;;;20.80;94.80;;;;;;5021105;28;20201;-87
2023/09/21 02:55:39;;;;;;;3.00;1.80;;;20.80;94.90;;;;;;4997343;28;20617;-86
2023/09/21 02:58:12;;;;;;;3.30;1.80;;;20.80;94.50;;;;;;5019015;28;20288;-87
2023/09/21 03:00:42;;;;;;;1.83;1.67;;;20.80;94.80;;;;;;5011238;28;20550;-87
2023/09/21 03:03:19;;;;;;;2.73;1.83;;;20.90;94.80;;;;;;5019827;28;20170;-86
2023/09/21 03:05:47;;;;;;;3.43;1.70;;;20.90;94.60;;;;;;5029223;28;20165;-86
2023/09/21 03:08:16;;;;;;;2.57;1.60;;;20.80;94.60;;;;;;5002981;28;20451;-87
2023/09/21 03:10:47;;;;;;;2.33;1.70;;;20.90;94.70;;;;;;5045956;28;20580;-88
2023/09/21 03:13:20;;;;;;;3.77;2.00;;;20.90;94.70;;;;;;5004606;28;20181;-86
2023/09/21 03:15:59;;;;;;;2.00;1.60;;;20.80;94.80;;;;;;4998435;28;20571;-86
2023/09/21 03:18:25;;;;;;;2.50;1.57;;;20.90;94.60;;;;;;5011630;28;20312;-87
2023/09/21 03:20:52;;;;;;;2.57;1.60;;;20.80;94.80;;;;;;5000307;28;20269;-86
2023/09/21 03:23:21;;;;;;;2.73;1.87;;;20.80;95.00;;;;;;5012095;28;20184;-86
2023/09/21 03:25:49;;;;;;;2.13;1.50;;;20.80;94.60;;;;;;5000598;28;20182;-86
2023/09/21 03:28:19;;;;;;;3.90;1.93;;;20.80;94.90;;;;;;5030647;28;20468;-86
2023/09/21 03:30:50;;;;;;;1.77;1.47;;;20.80;94.90;;;;;;5019503;28;20181;-86
2023/09/21 03:33:21;;;;;;;2.37;1.50;;;20.80;94.90;;;;;;5006182;28;20197;-86
2023/09/21 03:35:47;;;;;;;2.33;1.60;;;20.80;95.00;;;;;;4997152;28;20545;-86
2023/09/21 03:38:18;;;;;;;1.63;1.53;;;20.70;95.30;;;;;;5019207;28;20212;-85
2023/09/21 03:40:44;;;;;;;1.83;1.50;;;20.70;95.10;;;;;;5032474;28;20182;-86
2023/09/21 03:43:13;;;;;;;4.43;1.70;;;20.70;95.30;;;;;;5020903;28;20177;-86
2023/09/21 03:45:41;;;;;;;2.50;1.70;;;20.70;95.30;;;;;;5016207;28;20578;-86
2023/09/21 03:48:08;;;;;;;3.47;2.00;;;20.70;95.30;;;;;;5002149;28;20184;-86
2023/09/21 03:50:38;;;;;;;2.90;1.80;;;20.70;95.30;;;;;;5030506;28;20180;-86
2023/09/21 03:53:09;;;;;;;2.47;1.93;;;20.60;95.30;;;;;;5012464;28;20178;-87
2023/09/21 03:55:35;;;;;;;2.83;1.77;;;20.60;95.60;;;;;;5008665;28;20700;-86
2023/09/21 03:58:05;;;;;;;3.77;1.80;;;20.70;95.50;;;;;;5029520;28;20224;-86
2023/09/21 04:03:01;;;;;;;3.07;1.73;;;20.60;95.60;;;;;;5016921;28;20288;-86
2023/09/21 04:05:31;;;;;;;3.17;1.60;;;20.60;95.50;;;;;;5005646;28;20184;-86
2023/09/21 04:08:00;;;;;;;2.47;1.77;;;20.60;95.50;;;;;;5015254;28;20436;-86
2023/09/21 04:10:30;;;;;;;2.37;1.70;;;20.60;95.40;;;;;;5004179;28;20181;-86
2023/09/21 04:12:56;;;;;;;3.30;1.60;;;20.60;95.50;;;;;;5012916;28;20195;-87
2023/09/21 04:15:29;;;;;;;3.10;1.60;;;20.60;95.60;;;;;;5007128;28;20170;-86
2023/09/21 04:17:57;;;;;;;3.97;1.53;;;20.60;95.50;;;;;;5013328;28;20374;-87
2023/09/21 04:20:36;;;;;;;3.53;1.87;;;20.60;95.50;;;;;;5004695;28;20175;-86
2023/09/21 04:23:03;;;;;;;3.90;1.90;;;20.60;95.40;;;;;;5031768;28;20344;-86
2023/09/21 04:25:29;;;;;;;2.73;1.80;;;20.60;95.50;;;;;;5002211;28;20648;-86
2023/09/21 04:27:57;;;;;;;2.90;1.80;;;20.60;95.60;;;;;;5014726;28;20192;-86
2023/09/21 04:30:26;;;;;;;2.33;1.60;;;20.50;95.70;;;;;;5003453;28;20549;-87
2023/09/21 04:32:54;;;;;;;4.47;1.87;;;20.50;95.70;;;;;;5015437;28;20204;-86
2023/09/21 04:35:23;;;;;;;1.97;1.70;;;20.50;95.90;;;;;;5000499;28;20659;-86
2023/09/21 04:37:54;;;;;;;2.73;1.63;;;20.50;95.80;;;;;;5014557;28;20473;-86
2023/09/21 04:40:20;;;;;;;1.63;1.47;;;20.60;95.80;;;;;;5003829;28;20174;-86
2023/09/21 04:42:49;;;;;;;3.73;1.80;;;20.60;95.70;;;;;;5011527;28;20169;-85
2023/09/21 04:45:18;;;;;;;3.40;1.47;;;20.60;95.60;;;;;;5010377;28;20169;-86
2023/09/21 04:47:47;;;;;;;3.83;1.83;;;20.60;95.60;;;;;;4994342;28;20186;-86
2023/09/21 04:50:14;;;;;;;2.10;1.90;;;20.60;95.70;;;;;;4999130;28;20519;-86
2023/09/21 04:52:48;;;;;;;2.87;1.70;;;20.60;95.70;;;;;;4996366;28;20264;-86
2023/09/21 04:55:17;;;;;;;3.27;1.90;;;20.60;95.70;;;;;;4995885;28;20182;-86
2023/09/21 04:57:43;;;;;;;2.30;1.70;;;20.60;95.60;;;;;;5007475;28;20259;-86
2023/09/21 05:00:53;;;;;;;2.53;1.90;;;20.60;95.70;;;;;;5009158;28;20185;-87
2023/09/21 05:03:22;;;;;;;2.60;1.57;;;20.60;95.60;;;;;;5029134;28;20492;-86
2023/09/21 05:05:49;;;;;;;2.87;1.80;;;20.50;95.70;;;;;;5002275;28;20300;-85
2023/09/21 05:08:14;;;;;;;2.00;1.70;;;20.50;95.70;;;;;;5000521;28;20416;-86
2023/09/21 05:10:43;;;;;;;2.87;2.07;;;20.60;95.80;;;;;;4999233;28;20176;-86
2023/09/21 05:13:10;;;;;;;1.83;1.70;;;20.60;95.70;;;;;;5031837;28;20214;-86
2023/09/21 05:15:36;;;;;;;3.67;1.90;;;20.60;95.80;;;;;;4994968;28;20371;-86
2023/09/21 05:18:07;;;;;;;2.63;1.70;;;20.60;95.80;;;;;;4999395;28;20615;-86
2023/09/21 05:20:39;;;;;;;7.47;1.90;;;20.50;95.90;;;;;;5008683;28;20185;-87
2023/09/21 05:23:06;;;;;;;2.07;1.50;;;20.50;96.00;;;;;;5001255;28;20186;-86
2023/09/21 05:25:32;;;;;;;3.33;1.70;;;20.50;96.30;;;;;;4993500;28;20272;-86
2023/09/21 05:28:01;;;;;;;2.73;1.80;;;20.40;96.20;;;;;;5019799;28;20272;-87
2023/09/21 05:30:30;;;;;;;3.67;1.83;;;20.50;96.40;;;;;;4993374;28;20181;-86
2023/09/21 05:32:56;;;;;;;3.60;2.00;;;20.50;96.70;;;;;;5019627;28;20190;-86
2023/09/21 05:35:25;;;;;;;3.10;2.10;;;20.50;96.50;;;;;;4988729;28;20192;-86
2023/09/21 05:37:51;;;;;;;3.67;1.77;;;20.50;96.40;;;;;;5002954;28;20201;-86
2023/09/21 05:40:18;;;;;;;3.40;2.03;;;20.50;96.40;;;;;;5009251;28;20500;-86
2023/09/21 05:42:47;;;;;;;2.90;2.17;;;20.50;96.50;;;;;;5000208;28;20223;-86
2023/09/21 05:45:44;;;;;;;3.50;1.80;;;20.50;96.70;;;;;;4989114;28;20196;-87
2023/09/21 05:48:15;;;;;;;3.47;1.83;;;20.40;96.80;;;;;;5000965;28;20169;-87
2023/09/21 05:50:41;;;;;;;3.13;1.83;;;20.50;96.80;;;;;;4985134;28;20184;-87
2023/09/21 05:53:09;;;;;;;2.17;1.80;;;20.40;96.80;;;;;;5015787;28;20596;-86
2023/09/21 05:55:36;;;;;;;3.03;1.90;;;20.50;96.90;;;;;;4988008;28;20189;-87
2023/09/21 05:58:04;;;;;;;5.03;1.70;;;20.60;96.80;;;;;;5015883;28;20208;-87
2023/09/21 06:00:36;;;;;;;3.53;1.90;;;20.70;96.60;;;;;;4986449;28;20648;-87
2023/09/21 06:03:06;;;;;;;2.97;1.90;;;20.60;96.60;;;;;;4998029;28;20197;-88
2023/09/21 06:05:32;;;;;;;3.37;1.97;;;20.70;96.70;;;;;;4990459;28;20184;-87
2023/09/21 06:08:01;;;;;;;3.10;1.80;;;20.70;96.70;;;;;;4993185;28;20182;-87
2023/09/21 06:10:30;;;;;;;2.50;1.90;;;20.70;96.70;;;;;;5006886;28;20545;-87
2023/09/21 06:12:56;;;;;;;2.90;1.93;;;20.70;96.70;;;;;;5002357;28;20280;-87
2023/09/21 06:15:25;;;;;;;3.70;1.90;;;20.80;96.70;;;;;;4988430;28;20185;-87
2023/09/21 06:17:52;;;;;;;2.60;1.90;;;20.90;96.70;;;;;;4993323;28;20184;-86
2023/09/21 06:20:20;;;;;;;3.43;2.13;;;21.00;96.70;;;;;;4995621;28;20514;-86
2023/09/21 06:22:50;;;;;;;3.57;2.00;;;21.00;96.40;;;;;;4993671;28;20173;-86
2023/09/21 06:25:16;;;;;;;2.63;2.00;;;21.00;96.60;;;;;;5005795;28;20166;-87
2023/09/21 06:27:42;;;;;;;3.63;2.00;;;21.10;96.80;;;;;;4987882;28;20288;-88
2023/09/21 06:30:15;;;;;;;2.83;1.97;;;21.20;97.00;;;;;;4997762;28;20238;-87
2023/09/21 06:32:40;;;;;;;4.50;2.20;;;21.30;96.50;;;;;;4987653;28;20211;-86
2023/09/21 06:35:09;;;;;;;2.60;1.90;;;21.30;96.30;;;;;;4997200;28;20352;-86
2023/09/21 06:37:38;;;;;;;3.07;1.90;;;21.40;96.40;;;;;;4988983;28;20173;-87
2023/09/21 06:40:10;;;;;;;2.60;2.00;;;21.40;96.20;;;;;;4998626;28;20174;-87
2023/09/21 06:42:39;;;;;;;2.27;1.87;;;21.50;96.20;;;;;;5004899;28;20170;-86
2023/09/21 06:45:05;;;;;;;2.40;2.03;;;21.50;96.10;;;;;;5000611;28;20554;-86
2023/09/21 06:47:31;;;;;;;3.10;1.80;;;21.50;96.20;;;;;;4987481;28;20508;-87
2023/09/21 06:50:00;;;;;;;2.73;2.00;;;21.60;96.00;;;;;;5002948;28;20181;-87
2023/09/21 06:52:28;;;;;;;2.30;2.00;;;21.70;96.00;;;;;;4988873;28;20335;-87
2023/09/21 06:55:00;;;;;;;2.77;1.80;;;21.70;95.90;;;;;;5002394;28;20270;-87
2023/09/21 06:57:34;;;;;;;4.43;1.80;;;21.80;95.80;;;;;;5003677;28;20285;-87
2023/09/21 07:00:10;;;;;;;3.07;1.83;;;21.90;95.30;;;;;;4999500;28;20302;-85
2023/09/21 07:02:39;;;;;;;3.00;2.00;;;21.90;95.70;;;;;;4990108;28;20250;-87
2023/09/21 07:05:10;;;;;;;2.53;1.90;;;22.00;95.50;;;;;;5002617;28;20471;-87
2023/09/21 07:07:41;;;;;;;2.73;1.80;;;22.00;95.50;;;;;;4992063;28;20189;-86
2023/09/21 07:10:09;;;;;;;3.00;2.10;;;22.00;95.50;;;;;;4997325;28;20251;-86
2023/09/21 07:12:41;;;;;;;3.20;2.10;;;22.20;95.50;;;;;;5009790;28;20201;-87
2023/09/21 07:15:10;;;;;;;7.10;2.07;;;22.20;95.10;;;;;;5000060;28;20258;-86
2023/09/21 07:17:38;;;;;;;3.67;1.90;;;22.30;95.10;;;;;;5020636;28;20615;-87
2023/09/21 07:20:06;;;;;;;3.10;2.07;;;22.40;94.90;;;;;;5034343;28;20169;-87
2023/09/21 07:22:32;;;;;;;2.70;1.73;;;22.40;94.90;;;;;;5001848;28;20183;-86
2023/09/21 07:24:59;;;;;;;3.03;1.70;;;22.40;94.90;;;;;;5005297;28;20440;-87
2023/09/21 07:27:28;;;;;;;2.83;2.00;;;22.50;94.70;;;;;;5001090;28;20689;-86
2023/09/21 07:30:03;;;;;;;2.57;2.00;;;22.60;94.80;;;;;;5040844;28;20308;-86
2023/09/21 07:32:29;;;;;;;3.13;2.00;;;22.60;94.70;;;;;;4999644;28;20191;-85
2023/09/21 07:34:58;;;;;;;2.80;2.07;;;22.60;94.80;;;;;;5009483;28;20189;-87
2023/09/21 07:37:27;;;;;;;2.30;2.07;;;22.80;94.90;;;;;;4999517;28;20220;-87
2023/09/21 07:39:53;;;;;;;2.83;1.83;;;22.90;94.70;;;;;;5027007;28;20463;-86
2023/09/21 07:42:21;;;;;;;3.73;1.90;;;22.80;94.60;;;;;;4998811;28;20367;-87
2023/09/21 07:44:50;;;;;;;2.17;1.83;;;22.80;94.40;;;;;;5010642;28;20169;-87
2023/09/21 07:47:16;;;;;;;3.87;2.07;;;22.80;94.90;;;;;;5000043;28;20716;-86
2023/09/21 07:49:44;;;;;;;4.40;2.00;;;22.90;94.50;;;;;;5010371;28;20315;-86
2023/09/21 07:52:10;;;;;;;3.63;2.10;;;22.90;94.40;;;;;;5021121;28;20347;-86
2023/09/21 07:54:38;;;;;;;4.67;1.87;;;22.90;94.60;;;;;;5008521;28;20241;-86
2023/09/21 07:57:08;;;;;;;5.40;2.03;;;22.90;94.40;;;;;;5013993;28;20187;-86
2023/09/21 07:59:33;;;;;;;2.77;1.80;;;23.00;94.30;;;;;;5025173;28;20205;-86
2023/09/21 08:02:00;;;;;;;2.43;1.83;;;23.00;94.70;;;;;;5032006;28;20574;-86
2023/09/21 08:04:29;;;;;;;3.37;1.80;;;23.00;94.40;;;;;;5009110;28;20291;-86
2023/09/21 08:06:59;;;;;;;3.77;1.97;;;23.00;94.40;;;;;;5020680;28;20173;-87
2023/09/21 08:09:28;;;;;;;3.30;1.90;;;23.00;94.20;;;;;;5008912;28;20193;-87
2023/09/21 08:12:00;;;;;;;3.40;2.23;;;23.10;94.30;;;;;;5011938;28;20184;-87
2023/09/21 08:14:31;;;;;;;3.17;2.27;;;23.20;95.00;;;;;;4993407;28;20182;-88
2023/09/21 08:16:58;;;;;;;3.13;2.23;;;23.50;94.00;;;;;;4993737;28;20180;-87
2023/09/21 08:19:26;;;;;;;3.20;2.20;;;23.60;94.20;;;;;;5025530;28;20603;-87
2023/09/21 08:21:52;;;;;;;3.35;2.00;;;23.70;93.70;;;;;;5008682;28;20170;-88
2023/09/21 08:24:21;;;;;;;2.45;1.70;;;23.80;93.50;;;;;;4996126;28;20583;-87
2023/09/21 08:26:49;;;;;;;4.03;2.30;;;23.80;93.50;;;;;;5005772;28;20230;-87
2023/09/21 08:29:21;;;;;;;3.00;2.00;;;23.90;93.20;;;;;;5028742;28;20474;-87
2023/09/21 08:31:53;;;;;;;3.28;2.10;;;24.10;92.90;;;;;;4986849;28;20168;-87
2023/09/21 08:34:19;;;;;;;3.60;2.30;;;24.20;92.50;;;;;;4998478;28;20193;-87
2023/09/21 08:36:44;;;;;;;3.20;2.17;;;24.20;92.10;;;;;;5023093;28;20192;-87
2023/09/21 08:39:13;;;;;;;3.53;2.00;;;24.40;92.10;;;;;;5013510;28;20440;-87
2023/09/21 08:41:51;;;;;;;2.60;2.30;;;24.60;91.80;;;;;;5006732;28;20249;-87
2023/09/21 08:44:20;;;;;;;3.63;2.55;;;24.70;91.20;;;;;;5014369;28;20306;-87
2023/09/21 08:46:55;;;;;;;4.53;2.00;;;24.70;90.80;;;;;;5007333;28;20367;-87
2023/09/21 08:49:27;;;;;;;3.63;2.10;;;24.70;90.90;;;;;;5032851;28;20177;-87
2023/09/21 08:51:56;;;;;;;3.15;2.22;;;24.60;91.20;;;;;;4988267;28;20185;-87
2023/09/21 08:54:26;;;;;;;3.80;2.30;;;24.60;91.20;;;;;;4999897;28;20181;-87
2023/09/21 08:56:55;;;;;;;4.47;2.10;;;24.50;91.50;;;;;;4988601;28;20247;-88
2023/09/21 08:59:29;;;;;;;3.22;2.22;;;24.50;91.80;;;;;;5018760;28;20197;-87
2023/09/21 09:01:58;;;;;;;4.05;2.50;;;24.50;91.50;;;;;;4989030;28;20175;-87
2023/09/21 09:04:28;;;;;;;5.75;2.10;;;24.40;91.70;;;;;;5002284;28;20197;-88
2023/09/21 09:06:54;;;;;;;2.65;2.30;;;24.20;92.10;;;;;;4990094;28;20228;-87
2023/09/21 09:09:20;;;;;;;2.50;1.83;;;24.30;92.20;;;;;;4999687;28;20208;-87
2023/09/21 09:11:46;;;;;;;2.45;1.85;;;24.20;92.50;;;;;;5007617;28;20174;-87
2023/09/21 09:14:19;;;;;;;1.80;1.70;;;24.20;92.30;;;;;;5013729;28;20264;-87
2023/09/21 09:16:52;;;;;;;3.78;1.77;;;24.20;92.30;;;;;;4988595;28;20185;-87
2023/09/21 09:19:18;;;;;;;2.85;2.08;;;24.20;92.20;;;;;;4993228;28;20493;-87
2023/09/21 09:21:52;;;;;;;6.53;2.00;;;24.30;92.60;;;;;;4988148;28;20281;-87
2023/09/21 09:24:22;;;;;;;4.22;1.90;;;24.30;93.00;;;;;;4990977;28;20316;-87
2023/09/21 09:26:51;;;;;;;5.60;2.00;;;24.20;92.90;;;;;;4992324;28;20244;-87
2023/09/21 09:29:17;;;;;;;4.22;2.13;;;24.20;92.80;;;;;;4991333;28;20203;-88
2023/09/21 09:31:47;;;;;;;4.05;1.73;;;24.10;93.00;;;;;;4994070;28;20589;-87
2023/09/21 09:37:05;;;;;;;2.67;1.87;;;24.00;93.40;;;;;;5007172;28;20181;-87
2023/09/21 09:39:33;;;;;;;3.17;2.00;;;23.90;93.60;;;;;;4993413;28;20259;-87
2023/09/21 09:42:03;;;;;;;2.53;2.20;;;23.90;94.00;;;;;;5014894;28;20173;-87
2023/09/21 09:44:31;;;;;;;5.43;1.97;;;24.00;93.80;;;;;;5010141;28;20162;-87
2023/09/21 09:47:03;;;;;;;3.50;1.70;;;24.10;94.20;;;;;;4998106;28;20368;-87
2023/09/21 09:49:38;;;;;;;2.57;1.80;;;24.10;94.00;;;;;;4987287;28;20200;-87
2023/09/21 09:52:06;;;;;;;2.60;1.73;;;24.10;93.80;;;;;;4984930;28;20185;-88
2023/09/21 09:54:39;;;;;;;3.87;1.83;;;24.00;94.00;;;;;;5006017;28;20169;-87
2023/09/21 09:57:11;;;;;;;2.20;1.60;;;24.20;94.00;;;;;;4995694;28;20188;-87
2023/09/21 09:59:41;;;;;;;3.10;1.90;;;24.20;93.70;;;;;;5040831;28;20252;-87
2023/09/21 10:02:11;;;;;;;4.13;2.07;;;24.30;94.10;;;;;;4997967;28;20546;-87
2023/09/21 10:04:46;;;;;;;4.63;2.23;;;24.30;93.50;;;;;;5006135;28;20204;-87
2023/09/21 10:07:17;;;;;;;3.70;1.83;;;24.20;93.60;;;;;;4996840;28;20598;-87
2023/09/21 10:09:44;;;;;;;3.30;1.80;;;24.20;93.70;;;;;;5024856;28;20205;-87
2023/09/21 10:12:17;;;;;;;3.37;1.90;;;24.30;93.60;;;;;;4997955;28;20174;-87
2023/09/21 10:14:48;;;;;;;3.10;1.90;;;24.30;93.80;;;;;;4990794;28;20276;-87
2023/09/21 10:17:27;;;;;;;2.30;1.90;;;24.30;93.70;;;;;;4997572;28;20559;-87
2023/09/21 10:20:49;;;;;;;2.27;1.70;;;24.20;94.00;;;;;;5041416;28;20219;-87
2023/09/21 10:23:09;;;;;;;5.63;1.90;;;24.20;94.40;;;;;;5010011;28;20558;-87
2023/09/21 10:25:43;;;;;;;3.07;1.93;;;24.10;94.40;;;;;;4990527;28;20280;-87
2023/09/21 10:28:28;;;;;;;4.37;2.00;;;24.00;94.80;;;;;;4999275;28;20207;-87
2023/09/21 10:30:57;;;;;;;4.47;2.20;;;24.00;95.10;;;;;;4988528;28;20340;-87
2023/09/21 10:33:26;;;;;;;3.10;1.80;;;23.90;95.10;;;;;;5031364;28;20264;-86
2023/09/21 10:35:52;;;;;;;3.13;1.97;;;23.90;95.00;;;;;;4990572;28;20467;-86
2023/09/21 10:38:21;;;;;;;2.87;2.07;;;23.90;95.70;;;;;;5001107;28;20205;-87
2023/09/21 10:40:51;;;;;;;2.47;1.73;;;23.90;95.50;;;;;;4991931;28;20178;-86
2023/09/21 10:43:38;;;;;;;3.67;1.73;;;23.80;95.50;;;;;;5019202;28;20579;-86
2023/09/21 10:46:23;;;;;;;3.33;2.07;;;23.80;95.70;;;;;;4992308;28;20489;-86
2023/09/21 10:49:13;;;;;;;3.53;1.90;;;23.70;95.80;;;;;;4998990;28;20199;-86
2023/09/21 10:51:39;;;;;;;4.00;2.10;;;23.70;96.40;;;;;;5004405;28;20265;-87
2023/09/21 10:54:15;;;;;;;2.90;1.93;;;23.70;96.60;;;;;;5000961;28;20554;-86
2023/09/21 10:56:44;;;;;;;5.03;2.10;;;23.70;96.60;;;;;;5033368;28;20169;-87
2023/09/21 10:59:12;;;;;;;3.63;2.17;;;23.70;97.00;;;;;;4997945;28;20299;-86
2023/09/21 11:01:41;;;;;;;3.23;2.10;;;23.70;96.70;;;;;;5042281;28;20188;-87
2023/09/21 11:04:11;;;;;;;5.10;2.03;;;23.60;96.80;;;;;;5000731;28;20178;-87
2023/09/21 11:06:37;;;;;;;2.73;1.87;;;23.70;96.90;;;;;;4991596;28;20633;-86
2023/09/21 11:09:14;;;;;;;2.37;1.80;;;23.70;96.90;;;;;;5001273;28;20543;-86
2023/09/21 11:11:44;;;;;;;2.60;2.00;;;23.70;96.70;;;;;;4985721;28;20281;-89
2023/09/21 11:14:12;;;;;;;5.17;2.00;;;23.70;96.60;;;;;;5016433;28;20176;-87
2023/09/21 11:16:42;;;;;;;6.47;2.00;;;23.70;96.60;;;;;;4983557;28;20337;-86
2023/09/21 11:19:09;;;;;;;3.37;2.07;;;23.70;96.90;;;;;;5014981;28;20346;-87
2023/09/21 11:21:38;;;;;;;2.67;2.07;;;23.70;97.00;;;;;;4987013;28;20291;-87
2023/09/21 11:24:05;;;;;;;2.87;1.90;;;23.70;97.10;;;;;;4998933;28;20176;-86
2023/09/21 11:26:33;;;;;;;3.53;1.97;;;23.60;97.20;;;;;;5004276;28;20289;-86
2023/09/21 11:29:02;;;;;;;3.57;2.00;;;23.50;97.30;;;;;;4998107;28;20277;-87
2023/09/21 11:31:31;;;;;;;2.97;2.20;;;23.50;97.50;;;;;;4987616;28;20578;-86
2023/09/21 11:34:06;;;;;;;4.53;2.50;;;23.60;97.60;;;;;;5013642;28;20183;-86
2023/09/21 11:36:34;;;;;;;3.10;2.23;;;23.70;98.10;;;;;;5021251;28;20212;-87
2023/09/21 11:39:11;;;;;;;3.73;2.53;;;23.70;97.80;;;;;;4995775;28;20211;-87
2023/09/21 11:41:40;;;;;;;3.30;2.00;;;23.70;97.30;;;;;;4990628;28;20317;-87
2023/09/21 11:44:08;;;;;;;2.17;1.87;;;23.70;97.10;;;;;;5012141;28;20362;-86
2023/09/21 11:46:39;;;;;;;3.60;2.30;;;23.70;97.00;;;;;;5011056;28;20269;-86
2023/09/21 11:49:07;;;;;;;3.83;2.00;;;23.80;97.30;;;;;;5013317;28;20175;-86
2023/09/21 11:51:36;;;;;;;5.40;2.10;;;23.70;97.40;;;;;;5011531;28;20236;-87
2023/09/21 11:54:04;;;;;;;3.50;1.90;;;23.80;97.70;;;;;;4992968;28;20203;-87
2023/09/21 11:56:30;;;;;;;3.67;2.10;;;23.80;97.20;;;;;;4992539;28;20178;-86
2023/09/21 11:58:59;;;;;;;2.87;1.90;;;23.80;97.50;;;;;;4992974;28;20276;-86
2023/09/21 12:01:27;;;;;;;2.77;2.10;;;23.80;97.60;;;;;;4997898;28;20184;-86
2023/09/21 12:03:57;;;;;;;2.37;1.80;;;23.80;97.60;;;;;;5020545;28;20266;-87
2023/09/21 12:06:39;;;;;;;3.03;1.93;;;23.80;97.40;;;;;;5012718;28;20234;-87
2023/09/21 12:09:12;;;;;;;2.37;1.80;;;23.80;97.60;;;;;;5007356;28;20451;-87
2023/09/21 12:11:45;;;;;;;3.30;1.87;;;23.80;97.50;;;;;;5000443;28;20174;-87
2023/09/21 12:14:12;;;;;;;4.50;2.80;;;23.80;97.50;;;;;;4990144;28;20592;-87
2023/09/21 12:16:38;;;;;;;3.17;1.90;;;23.80;98.10;;;;;;4999285;28;20213;-87
2023/09/21 12:19:08;;;;;;;3.93;2.00;;;23.80;98.30;;;;;;4988925;28;20367;-87
2023/09/21 12:21:38;;;;;;;3.43;1.90;;;23.80;98.10;;;;;;5016857;28;20399;-87
2023/09/21 12:24:07;;;;;;;3.73;2.30;;;23.80;97.80;;;;;;4987054;28;20170;-86
2023/09/21 12:26:36;;;;;;;3.40;1.90;;;23.80;98.00;;;;;;5034975;28;20443;-86
2023/09/21 12:29:05;;;;;;;2.63;1.90;;;23.70;98.00;;;;;;5040882;28;20185;-86
2023/09/21 12:31:31;;;;;;;3.30;1.90;;;23.70;98.00;;;;;;5015637;28;20173;-86
2023/09/21 12:33:57;;;;;;;3.60;2.00;;;23.80;98.00;;;;;;4987410;28;20473;-86
2023/09/21 12:36:24;;;;;;;3.33;1.90;;;23.80;98.20;;;;;;4998689;28;20177;-87
2023/09/21 12:38:54;;;;;;;3.33;1.83;;;23.80;98.10;;;;;;5005889;28;20519;-86
2023/09/21 12:41:20;;;;;;;3.93;2.10;;;23.80;98.20;;;;;;4998087;28;20169;-86
2023/09/21 12:43:46;;;;;;;3.30;2.10;;;23.80;98.20;;;;;;5006748;28;20455;-86
2023/09/21 12:46:12;;;;;;;2.07;1.87;;;23.80;98.10;;;;;;5012211;28;20165;-86
2023/09/21 12:48:40;;;;;;;2.93;1.90;;;23.80;98.40;;;;;;4992841;28;20388;-86
2023/09/21 12:51:07;;;;;;;4.83;2.10;;;23.70;98.20;;;;;;5011741;28;20173;-87
2023/09/21 12:53:33;;;;;;;3.53;2.13;;;23.70;98.30;;;;;;4992536;28;20169;-86
2023/09/21 12:55:58;;;;;;;2.83;2.20;;;23.60;98.50;;;;;;5007800;28;20183;-86
2023/09/21 12:58:29;;;;;;;3.20;2.03;;;23.60;98.80;;;;;;4998928;28;20626;-86
2023/09/21 13:00:58;;;;;;;4.60;1.87;;;23.60;98.90;;;;;;5024076;28;20164;-87
2023/09/21 13:03:23;;;;;;;3.67;2.20;;;23.60;99.00;;;;;;4997698;28;20176;-86
2023/09/21 13:05:52;;;;;;;3.20;1.80;;;23.60;98.90;;;;;;5006531;28;20166;-86
2023/09/21 13:08:20;;;;;;;3.77;2.17;;;23.60;99.10;;;;;;4998090;28;20547;-87